Latest Weather Observations for Yanakie

IDV60801

Issued at 9:31 am EDT Monday 2 February 2015 (issued every 30 minutes, with the page automatically refreshed every 10 minutes)

About weather observations | Map of weather stations | Latest weather observations for VIC | Other Formats
Station Details ID: 085301 Name: YANAKIE Lat: -38.81 Lon: 146.19 Height: 13.3 m
Data from the previous 72 hours. | See also: Recent months at Yanakie
Date/Time
EDT
Temp
°C
App
Temp
°C
Dew
Point
Rel
Hum
%
Delta-T
°C
Wind Press
QNH
hPa
Press
MSL
hPa
Rain
since 9 am
mm
Dir
 
Spd
km/h
Gust
km/h
Spd
kts
Gust
kts
02/09:30am 19.2 19.0 12.9 67 3.5 WNW 6 13 3 7 1019.1 1019.0 0.0
02/09:00am 18.6 17.8 14.1 75 2.6 NW 11 15 6 8 1018.9 1018.8 0.0
02/08:30am 17.8 18.2 15.2 85 1.5 WNW 7 11 4 6 1018.7 1018.6 0.0
02/08:00am 15.9 16.1 14.6 92 0.7 W 7 11 4 6 1018.4 1018.3 0.0
02/07:30am 14.6 14.6 13.6 94 0.6 W 6 7 3 4 1018.1 1018.0 0.0
02/07:00am 12.8 13.0 11.7 93 0.6 W 2 4 1 2 1017.7 1017.6 0.0
02/06:30am 12.7 12.4 11.6 93 0.6 W 4 6 2 3 1017.3 1017.2 0.0
02/06:00am 12.9 13.0 11.6 92 0.7 WNW 2 4 1 2 1016.9 1016.8 0.0
02/05:30am 13.5 13.0 12.2 92 0.7 W 6 9 3 5 1016.6 1016.5 0.0
02/05:00am 12.9 13.0 11.6 92 0.7 NW 2 2 1 1 1016.3 1016.2 0.0
02/04:30am 12.4 11.6 11.1 92 0.7 WNW 6 7 3 4 1016.2 1016.1 0.0
02/04:00am 12.2 11.1 10.6 90 0.8 WNW 7 9 4 5 1016.1 1016.0 0.0
02/03:30am 13.2 12.5 11.4 89 1.0 WNW 6 7 3 4 1016.0 1015.9 0.0
02/03:00am 13.8 13.0 11.8 88 1.1 NW 7 9 4 5 1016.0 1015.9 0.0
02/02:30am 15.6 15.9 13.3 86 1.3 W 4 6 2 3 1016.2 1016.1 0.0
02/02:00am 15.9 17.0 13.4 85 1.4 CALM 0 0 0 0 1016.3 1016.2 0.0
02/01:30am 15.9 16.1 13.0 83 1.6 NW 4 6 2 3 1016.2 1016.1 0.0
02/01:00am 16.6 16.4 13.1 80 2.0 NNW 6 6 3 3 1016.5 1016.4 0.0
02/12:30am 17.0 16.3 13.3 79 2.1 NNE 9 13 5 7 1016.5 1016.4 0.0
02/12:00am 17.1 16.5 13.4 79 2.1 NE 9 13 5 7 1016.4 1016.3 0.0
 
Date/Time
EDT
Temp
°C
App
Temp
°C
Dew
Point
Rel
Hum
%
Delta-T
°C
Wind Press
QNH
hPa
Press
MSL
hPa
Rain
since 9 am
mm
Dir
 
Spd
km/h
Gust
km/h
Spd
kts
Gust
kts
01/11:30pm 17.1 16.8 13.2 78 2.2 NNE 7 13 4 7 1016.1 1016.0 0.0
01/11:00pm 17.3 16.7 13.4 78 2.2 NE 9 15 5 8 1016.1 1016.0 0.0
01/10:30pm 17.4 17.9 13.9 80 2.0 NNE 4 9 2 5 1015.8 1015.7 0.0
01/10:00pm 16.9 18.0 13.6 81 1.9 CALM 0 0 0 0 1015.6 1015.5 0.0
01/09:30pm 16.8 17.5 13.5 81 1.9 S 2 4 1 2 1015.4 1015.3 0.0
01/09:00pm 16.6 16.7 12.8 78 2.1 S 4 7 2 4 1015.1 1015.0 0.0
01/08:30pm 17.1 16.2 12.6 75 2.5 S 9 11 5 6 1014.9 1014.8 0.0
01/08:00pm 18.3 16.5 13.4 73 2.8 SSW 15 22 8 12 1014.7 1014.6 0.0
01/07:30pm 19.1 17.4 13.7 71 3.1 SSW 15 22 8 12 1014.0 1013.9 0.0
01/07:00pm 20.1 17.6 13.6 66 3.7 SSW 19 26 10 14 1013.8 1013.7 0.0
01/06:30pm 20.8 18.1 13.0 61 4.4 SSW 19 24 10 13 1013.2 1013.1 0.0
01/06:00pm 20.7 18.9 13.2 62 4.3 SSW 15 24 8 13 1013.0 1012.9 0.0
01/05:30pm 20.8 21.4 15.4 71 3.2 SSE 6 15 3 8 1012.8 1012.7 0.0
01/05:00pm 20.3 21.3 15.3 73 3.0 ESE 4 7 2 4 1012.7 1012.6 0.0
01/04:30pm 19.6 19.8 14.6 73 2.9 ESE 7 13 4 7 1012.8 1012.7 0.0
01/04:00pm 20.3 19.8 14.9 71 3.2 SSW 11 15 6 8 1012.8 1012.7 0.0
01/03:30pm 21.0 20.7 13.4 62 4.4 SE 7 15 4 8 1012.8 1012.7 0.0
01/03:00pm 24.1 22.8 14.8 56 5.5 SSW 15 24 8 13 1012.6 1012.5 0.0
01/02:30pm 23.8 21.9 14.2 55 5.7 S 17 24 9 13 1012.7 1012.6 0.0
01/02:00pm 24.9 22.8 13.5 49 6.7 SSW 17 24 9 13 1012.6 1012.5 0.0
01/01:30pm 23.4 21.9 14.1 56 5.5 SW 15 22 8 12 1012.7 1012.6 0.0
01/01:00pm 22.7 21.6 15.3 63 4.4 SSW 15 20 8 11 1012.8 1012.7 0.0
01/12:30pm 21.4 20.5 14.8 66 3.9 SW 13 19 7 10 1012.8 1012.7 0.0
01/12:00pm 21.4 20.9 14.8 66 3.9 SW 11 17 6 9 1012.8 1012.7 0.0
01/11:30am 20.7 20.4 14.4 67 3.7 SW 9 17 5 9 1012.8 1012.7 0.0
01/11:00am 20.1 20.2 14.5 70 3.3 WSW 7 11 4 6 1012.8 1012.7 0.0
01/10:30am 19.3 19.5 14.6 74 2.7 WSW 7 13 4 7 1012.5 1012.4 0.0
01/10:00am 18.5 18.7 14.8 79 2.2 W 7 9 4 5 1012.4 1012.3 0.0
01/09:30am 17.6 18.0 15.4 87 1.3 W 7 11 4 6 1012.3 1012.2 0.0
01/09:00am 17.2 17.5 15.9 92 0.8 WNW 9 13 5 7 1012.2 1012.1 0.0
01/08:30am 15.9 16.4 15.1 95 0.5 NW 6 9 3 5 1012.0 1011.9 0.0
01/08:00am 15.3 15.5 14.7 96 0.3 NW 7 9 4 5 1011.6 1011.5 0.0
01/07:30am 13.3 12.8 12.7 96 0.3 NW 7 9 4 5 1011.3 1011.2 0.0
01/07:00am 12.8 11.4 12.2 96 0.3 NNW 11 13 6 7 1011.1 1011.0 0.0
01/06:30am 11.1 10.4 10.2 94 0.5 N 4 6 2 3 1011.0 1010.9 0.0
01/06:00am 12.4 11.6 11.6 95 0.4 NNW 7 9 4 5 1010.6 1010.5 0.0
01/05:30am 12.1 11.2 11.2 94 0.5 NW 7 9 4 5 1010.4 1010.3 0.0
01/05:00am 12.3 11.4 11.4 94 0.5 NW 7 9 4 5 1010.4 1010.3 0.0
01/04:30am 12.8 11.2 11.7 93 0.6 NW 11 13 6 7 1010.4 1010.3 0.0
01/04:00am 12.7 11.5 11.6 93 0.6 NW 9 11 5 6 1010.5 1010.4 0.0
01/03:30am 13.5 12.5 12.2 92 0.7 NW 9 11 5 6 1010.8 1010.7 0.0
01/03:00am 14.0 13.1 12.7 92 0.7 WNW 9 11 5 6 1010.8 1010.7 0.0
01/02:30am 13.4 12.7 12.1 92 0.7 W 7 9 4 5 1011.0 1010.9 0.0
01/02:00am 13.2 12.0 11.6 90 0.9 W 9 9 5 5 1010.8 1010.7 0.0
01/01:30am 14.2 12.9 12.4 89 1.0 W 11 13 6 7 1011.0 1010.9 0.0
01/01:00am 14.9 13.3 12.9 88 1.1 W 13 17 7 9 1011.2 1011.1 0.0
01/12:30am 15.9 14.2 13.7 87 1.2 W 15 22 8 12 1011.4 1011.3 0.0
01/12:00am 15.7 14.0 13.7 88 1.1 WSW 15 19 8 10 1011.6 1011.5 0.0
 
Date/Time
EDT
Temp
°C
App
Temp
°C
Dew
Point
Rel
Hum
%
Delta-T
°C
Wind Press
QNH
hPa
Press
MSL
hPa
Rain
since 9 am
mm
Dir
 
Spd
km/h
Gust
km/h
Spd
kts
Gust
kts
31/11:30pm 15.6 13.8 13.4 87 1.2 WSW 15 22 8 12 1011.8 1011.7 0.0
31/11:00pm 15.8 13.7 13.6 87 1.2 WSW 17 22 9 12 1011.8 1011.7 0.0
31/10:30pm 16.2 14.6 14.0 87 1.2 WSW 15 24 8 13 1011.8 1011.7 0.0
31/10:00pm 15.7 15.4 13.4 86 1.3 WNW 7 13 4 7 1011.8 1011.7 0.0
31/09:30pm 15.3 14.7 12.2 82 1.7 WNW 7 11 4 6 1011.6 1011.5 0.0
31/09:00pm 16.2 14.5 12.6 79 2.0 W 13 17 7 9 1011.3 1011.2 0.0
31/08:30pm 16.6 14.4 12.2 75 2.4 W 15 20 8 11 1011.2 1011.1 0.0
31/08:00pm 17.2 14.7 12.3 73 2.7 W 17 24 9 13 1010.9 1010.8 0.0
31/07:30pm 17.8 14.9 12.3 70 3.0 WSW 19 28 10 15 1010.8 1010.7 0.0
31/07:00pm 19.1 16.1 12.6 66 3.6 WSW 20 28 11 15 1010.7 1010.6 0.0
31/06:30pm 19.8 16.5 12.8 64 4.0 W 22 30 12 16 1010.3 1010.2 0.0
31/06:00pm 20.2 16.9 12.7 62 4.2 WSW 22 28 12 15 1010.3 1010.2 0.0
31/05:30pm 21.0 17.7 12.9 60 4.6 WSW 22 32 12 17 1010.3 1010.2 0.0
31/05:00pm 20.9 17.3 13.1 61 4.5 WSW 24 32 13 17 1010.4 1010.3 0.0
31/04:30pm 21.7 18.4 14.1 62 4.4 SW 24 32 13 17 1010.4 1010.3 0.0
31/04:00pm 22.3 18.5 13.6 58 5.0 SW 26 33 14 18 1010.4 1010.3 0.0
31/03:30pm 22.0 19.2 14.4 62 4.5 SW 22 30 12 16 1010.3 1010.2 0.0
31/03:00pm 22.6 19.7 15.2 63 4.4 SW 24 33 13 18 1010.3 1010.2 0.0
31/02:30pm 21.9 19.0 15.0 65 4.1 SW 24 32 13 17 1010.3 1010.2 0.0
31/02:00pm 22.1 19.4 14.5 62 4.5 SW 22 33 12 18 1010.2 1010.1 0.0
31/01:30pm 23.1 20.2 13.0 53 5.8 SW 20 28 11 15 1010.3 1010.2 0.0
31/01:00pm 23.2 20.5 12.8 52 6.0 SW 19 24 10 13 1010.5 1010.4 0.0
31/12:30pm 23.1 20.5 12.1 50 6.2 SW 17 22 9 12 1010.6 1010.5 0.0
31/12:00pm 21.7 18.9 11.4 52 5.7 SW 17 24 9 13 1010.6 1010.5 0.0
31/11:30am 21.2 20.2 12.3 57 5.0 WSW 9 17 5 9 1010.6 1010.5 0.0
31/11:00am 21.3 20.2 13.2 60 4.6 SW 11 17 6 9 1010.6 1010.5 0.0
31/10:30am 20.9 19.4 14.3 66 3.8 SW 15 22 8 12 1010.7 1010.6 0.0
31/10:00am 19.8 19.1 14.2 70 3.2 WSW 11 17 6 9 1010.6 1010.5 0.0
31/09:30am 19.4 19.0 16.2 82 1.9 W 13 17 7 9 1010.6 1010.5 0.0
31/09:00am 17.2 17.1 15.9 92 0.8 WNW 11 15 6 8 1010.5 1010.4 0.0
31/08:30am 15.4 15.1 14.4 94 0.6 WNW 9 13 5 7 1010.6 1010.5 0.0
31/08:00am 14.4 13.8 13.6 95 0.4 WNW 9 13 5 7 1010.6 1010.5 0.0
31/07:30am 12.6 12.1 12.0 96 0.3 WNW 6 7 3 4 1010.4 1010.3 0.0
31/07:00am 9.3 8.2 8.5 95 0.4 W 4 6 2 3 1010.2 1010.1 0.0
31/06:30am 10.4 10.3 9.6 95 0.4 CALM 0 0 0 0 1010.0 1009.9 0.0
31/06:00am 11.5 10.0 10.7 95 0.4 W 9 9 5 5 1009.8 1009.7 0.0
31/05:30am 11.6 9.4 10.8 95 0.4 W 13 15 7 8 1009.6 1009.5 0.0
31/05:00am 10.3 8.9 9.4 94 0.4 W 7 11 4 6 1009.7 1009.6 0.0
31/04:30am 11.0 9.9 10.1 94 0.5 WNW 6 6 3 3 1009.8 1009.7 0.0
31/04:00am 10.8 9.6 9.7 93 0.6 WNW 6 9 3 5 1010.0 1009.9 0.0
31/03:30am 10.3 9.4 9.1 92 0.6 W 4 6 2 3 1010.2 1010.1 0.0
31/03:00am 11.0 9.7 9.8 92 0.6 WNW 7 9 4 5 1010.5 1010.4 0.0
31/02:30am 11.2 9.5 10.0 92 0.6 NW 9 11 5 6 1010.8 1010.7 0.0
31/02:00am 10.8 9.4 9.4 91 0.7 WNW 7 9 4 5 1010.9 1010.8 0.0
31/01:30am 11.6 9.6 10.0 90 0.8 NW 11 13 6 7 1011.3 1011.2 0.0
31/01:00am 11.8 10.5 10.0 89 0.9 NW 7 11 4 6 1011.6 1011.5 0.0
31/12:30am 12.2 10.9 9.9 86 1.2 WNW 7 9 4 5 1011.9 1011.8 0.0
31/12:00am 13.4 12.5 10.6 83 1.5 WSW 6 9 3 5 1012.1 1012.0 0.0
 
Date/Time
EDT
Temp
°C
App
Temp
°C
Dew
Point
Rel
Hum
%
Delta-T
°C
Wind Press
QNH
hPa
Press
MSL
hPa
Rain
since 9 am
mm
Dir
 
Spd
km/h
Gust
km/h
Spd
kts
Gust
kts
30/11:30pm 14.2 12.9 11.2 82 1.6 WSW 9 13 5 7 1012.4 1012.3 0.0
30/11:00pm 14.3 12.5 10.9 80 1.8 SW 11 17 6 9 1012.6 1012.5 0.0
30/10:30pm 14.3 13.7 10.3 77 2.1 WSW 4 7 2 4 1012.9 1012.8 0.0
30/10:00pm 14.5 13.2 10.1 75 2.3 NW 7 9 4 5 1013.0 1012.9 0.0
30/09:30pm 15.4 13.9 10.6 73 2.5 WSW 9 15 5 8 1012.9 1012.8 0.0
30/09:00pm 15.0 13.3 10.0 72 2.6 WSW 9 11 5 6 1012.9 1012.8 0.0
30/08:30pm 14.4 12.7 8.4 67 3.0 SW 7 11 4 6 1013.0 1012.9 0.0
30/08:00pm 16.4 14.5 8.9 61 3.9 SW 9 15 5 8 1013.1 1013.0 0.0
30/07:30pm 17.3 14.0 9.5 60 4.1 SW 17 22 9 12 1013.1 1013.0 0.0
30/07:00pm 17.1 13.4 9.5 61 4.0 SSW 19 24 10 13 1013.1 1013.0 0.0
30/06:30pm 17.2 13.4 9.1 59 4.2 SSW 19 28 10 15 1013.1 1013.0 0.0
30/06:00pm 17.2 13.3 9.6 61 4.0 SSW 20 28 11 15 1013.4 1013.3 0.0
30/05:30pm 17.3 13.5 9.7 61 4.0 SSW 20 30 11 16 1013.6 1013.5 0.0
30/05:00pm 17.4 13.4 10.3 63 3.8 S 22 32 12 17 1013.7 1013.6 0.0
30/04:30pm 19.0 15.1 10.8 59 4.4 S 22 33 12 18 1013.8 1013.7 0.0
30/04:00pm 19.1 15.5 10.6 58 4.6 S 20 33 11 18 1014.1 1014.0 0.0
30/03:30pm 20.1 16.3 11.1 56 4.9 SSW 22 33 12 18 1014.2 1014.1 0.0
30/03:00pm 20.2 16.0 11.1 56 5.0 SW 24 35 13 19 1014.4 1014.3 0.0
30/02:30pm 20.5 16.6 12.0 58 4.7 SW 24 32 13 17 1014.6 1014.5 0.0
30/02:00pm 19.3 15.9 11.3 60 4.4 SW 20 28 11 15 1014.8 1014.7 0.0
30/01:30pm 19.9 16.5 11.1 57 4.8 SW 20 28 11 15 1015.0 1014.9 0.0
30/01:00pm 19.1 16.2 10.9 59 4.4 SSW 17 22 9 12 1015.3 1015.2 0.0
30/12:30pm 17.5 14.8 10.4 63 3.8 SSW 15 20 8 11 1015.6 1015.5 0.0
30/12:00pm 17.5 14.8 10.4 63 3.8 SSW 15 22 8 12 1015.8 1015.7 0.0
30/11:30am 17.8 16.0 10.7 63 3.8 S 11 20 6 11 1016.0 1015.9 0.0
30/11:00am 16.9 14.2 10.3 65 3.5 S 15 20 8 11 1016.2 1016.1 0.0
30/10:30am 16.8 14.0 10.0 64 3.6 S 15 20 8 11 1016.3 1016.2 0.0
30/10:00am 18.0 16.1 10.4 61 4.1 S 11 26 6 14 1016.3 1016.2 0.0

Other Formats:

Comma delimited format used in spreadsheet applications
http://www.bom.gov.au/fwo/IDV60801/IDV60801.94911.axf

JavaScript Object Notation format (JSON) in row-major order
http://www.bom.gov.au/fwo/IDV60801/IDV60801.94911.json